Time;durP1;ratioP1;P1;durP2;ratioP2;P2;SDS_P1;SDS_P2;PMS_P1;PMS_P2;Temp;Humidity;BMP_temperature;BMP_pressure;BME280_temperature;BME280_humidity;BME280_pressure;Samples;Min_cycle;Max_cycle;Signal;HPM_P1;HPM_P2
2022/09/07 00:01:40;;;;;;;6.40;3.13;;;;;;;;;;5060481;28;20078;-57
2022/09/07 00:04:05;;;;;;;10.45;3.75;;;;;;;;;;5067756;28;20047;-57
2022/09/07 00:06:33;;;;;;;8.38;2.92;;;;;;;;;;5068378;28;20025;-57
2022/09/07 00:08:59;;;;;;;8.20;2.65;;;;;;;;;;5068557;28;20103;-58
2022/09/07 00:11:25;;;;;;;7.85;2.92;;;;;;;;;;5069090;28;20498;-57
2022/09/07 00:13:50;;;;;;;8.73;2.88;;;;;;;;;;5068174;28;20100;-58
2022/09/07 00:16:21;;;;;;;8.45;2.80;;;;;;;;;;5060619;28;20116;-58
2022/09/07 00:18:47;;;;;;;6.40;2.40;;;;;;;;;;5061398;28;20027;-57
2022/09/07 00:21:15;;;;;;;10.52;3.35;;;;;;;;;;5068408;28;20024;-57
2022/09/07 00:23:40;;;;;;;11.48;3.28;;;;;;;;;;5066750;28;20029;-57
2022/09/07 00:26:16;;;;;;;9.75;2.95;;;;;;;;;;5068265;28;20051;-57
2022/09/07 00:28:42;;;;;;;7.15;2.80;;;;;;;;;;5069646;28;20024;-57
2022/09/07 00:31:14;;;;;;;10.45;3.10;;;;;;;;;;5072759;28;20107;-57
2022/09/07 00:33:40;;;;;;;5.25;2.80;;;;;;;;;;5071202;28;20016;-57
2022/09/07 00:36:05;;;;;;;9.77;2.90;;;;;;;;;;5072160;28;20393;-57
2022/09/07 00:38:31;;;;;;;6.07;2.60;;;;;;;;;;5072417;28;20032;-57
2022/09/07 00:40:56;;;;;;;7.80;2.80;;;;;;;;;;5068174;28;20037;-57
2022/09/07 00:43:37;;;;;;;6.65;2.95;;;;;;;;;;5070681;28;20366;-57
2022/09/07 00:46:04;;;;;;;7.25;3.13;;;;;;;;;;5070725;28;20387;-57
2022/09/07 00:48:43;;;;;;;11.63;2.92;;;;;;;;;;5068298;28;20100;-57
2022/09/07 00:51:13;;;;;;;6.32;2.67;;;;;;;;;;5071281;28;20027;-58
2022/09/07 00:53:43;;;;;;;5.95;2.30;;;;;;;;;;5071217;28;20485;-58
2022/09/07 00:56:10;;;;;;;8.65;2.65;;;;;;;;;;5071793;28;20066;-57
2022/09/07 00:58:39;;;;;;;7.63;2.85;;;;;;;;;;5071738;28;20036;-57
2022/09/07 01:01:05;;;;;;;7.80;2.63;;;;;;;;;;5070760;28;20033;-57
2022/09/07 01:03:37;;;;;;;6.65;2.20;;;;;;;;;;5071069;28;20286;-57
2022/09/07 01:06:11;;;;;;;9.13;2.38;;;;;;;;;;5062194;28;20041;-57
2022/09/07 01:08:37;;;;;;;7.43;2.58;;;;;;;;;;5068179;28;20036;-57
2022/09/07 01:11:03;;;;;;;9.70;2.30;;;;;;;;;;5072064;28;20021;-58
2022/09/07 01:13:29;;;;;;;6.88;2.30;;;;;;;;;;5071134;28;20021;-57
2022/09/07 01:16:20;;;;;;;11.38;2.10;;;;;;;;;;5071386;28;20083;-57
2022/09/07 01:18:57;;;;;;;8.70;2.30;;;;;;;;;;5070306;28;20033;-57
2022/09/07 01:21:54;;;;;;;6.68;2.20;;;;;;;;;;5071003;28;20048;-57
2022/09/07 01:24:38;;;;;;;10.35;2.30;;;;;;;;;;5070538;28;20182;-57
2022/09/07 01:27:24;;;;;;;11.52;2.50;;;;;;;;;;5063427;28;20021;-57
2022/09/07 01:30:08;;;;;;;6.65;2.25;;;;;;;;;;5070808;28;20024;-56
2022/09/07 01:32:45;;;;;;;5.88;2.13;;;;;;;;;;5069562;28;20013;-56
2022/09/07 01:35:28;;;;;;;6.00;2.03;;;;;;;;;;5064413;28;20413;-56
2022/09/07 01:38:08;;;;;;;5.15;1.90;;;;;;;;;;5069414;28;20055;-56
2022/09/07 01:41:06;;;;;;;6.15;2.20;;;;;;;;;;5070060;28;20567;-56
2022/09/07 01:43:44;;;;;;;4.90;2.15;;;;;;;;;;5070290;28;20466;-56
2022/09/07 01:46:19;;;;;;;5.47;2.45;;;;;;;;;;5069532;28;20020;-56
2022/09/07 01:48:49;;;;;;;6.35;2.47;;;;;;;;;;5070879;28;20024;-56
2022/09/07 01:51:15;;;;;;;;;;;;;;;;;;5071295;28;20430;-56
2022/09/07 01:53:53;;;;;;;8.65;2.63;;;;;;;;;;5070159;28;20374;-56
2022/09/07 01:56:33;;;;;;;6.30;2.70;;;;;;;;;;5061829;28;20424;-56
2022/09/07 01:59:08;;;;;;;7.68;2.60;;;;;;;;;;5062431;28;20099;-56
2022/09/07 02:01:44;;;;;;;5.72;2.42;;;;;;;;;;5068808;28;20028;-56
2022/09/07 02:04:18;;;;;;;8.95;2.90;;;;;;;;;;5070375;28;20099;-56
2022/09/07 02:06:58;;;;;;;4.45;2.20;;;;;;;;;;5070117;28;20107;-56
2022/09/07 02:09:42;;;;;;;;;;;;;;;;;;5071169;28;20024;-56
2022/09/07 02:12:17;;;;;;;8.20;2.72;;;;;;;;;;5063409;28;20046;-56
2022/09/07 02:14:47;;;;;;;4.07;2.45;;;;;;;;;;5070620;28;20028;-56
2022/09/07 02:17:27;;;;;;;9.85;2.60;;;;;;;;;;5056622;28;20685;-56
2022/09/07 02:20:03;;;;;;;4.72;2.63;;;;;;;;;;5067321;28;20025;-56
2022/09/07 02:22:33;;;;;;;4.13;2.50;;;;;;;;;;5059336;28;20073;-56
2022/09/07 02:25:03;;;;;;;6.85;2.45;;;;;;;;;;5069745;28;20061;-56
2022/09/07 02:27:37;;;;;;;8.07;2.90;;;;;;;;;;5069243;28;20028;-56
2022/09/07 02:30:03;;;;;;;5.75;2.40;;;;;;;;;;5061107;28;20103;-56
2022/09/07 02:32:28;;;;;;;8.32;2.65;;;;;;;;;;5069705;28;20489;-56
2022/09/07 02:34:54;;;;;;;7.40;2.85;;;;;;;;;;5070034;28;20479;-56
2022/09/07 02:37:20;;;;;;;6.30;2.38;;;;;;;;;;5069282;28;20643;-56
2022/09/07 02:39:46;;;;;;;7.18;2.63;;;;;;;;;;5069985;28;20108;-56
2022/09/07 02:42:12;;;;;;;6.63;2.75;;;;;;;;;;5069324;28;20436;-56
2022/09/07 02:44:40;;;;;;;7.00;2.65;;;;;;;;;;5068818;28;20304;-56
2022/09/07 02:47:18;;;;;;;8.13;2.80;;;;;;;;;;5058362;28;20635;-56
2022/09/07 02:49:50;;;;;;;9.98;3.15;;;;;;;;;;5068563;28;20119;-56
2022/09/07 02:52:41;;;;;;;5.55;2.63;;;;;;;;;;5060274;28;20028;-56
2022/09/07 02:55:48;;;;;;;6.40;2.53;;;;;;;;;;5068734;28;20025;-56
2022/09/07 02:58:43;;;;;;;7.60;2.60;;;;;;;;;;5062989;28;20031;-56
2022/09/07 03:01:17;;;;;;;8.32;2.92;;;;;;;;;;5067744;28;20052;-56
2022/09/07 03:03:49;;;;;;;7.07;2.60;;;;;;;;;;5069521;28;20028;-57
2022/09/07 03:07:09;;;;;;;9.75;2.60;;;;;;;;;;5069510;28;20028;-57
2022/09/07 03:09:38;;;;;;;7.40;2.88;;;;;;;;;;5064326;28;20040;-56
2022/09/07 03:12:06;;;;;;;9.82;3.40;;;;;;;;;;5069391;28;20532;-56
2022/09/07 03:14:32;;;;;;;6.10;2.65;;;;;;;;;;5068291;28;20033;-57
2022/09/07 03:16:58;;;;;;;5.72;2.58;;;;;;;;;;5068689;28;20062;-56
2022/09/07 03:19:24;;;;;;;8.70;2.53;;;;;;;;;;5069275;28;20021;-56
2022/09/07 03:21:49;;;;;;;8.38;2.70;;;;;;;;;;5068472;28;20032;-56
2022/09/07 03:24:15;;;;;;;7.88;3.05;;;;;;;;;;5063600;28;20449;-56
2022/09/07 03:26:45;;;;;;;6.40;2.80;;;;;;;;;;5067905;28;20111;-57
2022/09/07 03:29:10;;;;;;;11.68;2.67;;;;;;;;;;5068887;28;20024;-56
2022/09/07 03:31:36;;;;;;;5.80;3.00;;;;;;;;;;5068512;28;20361;-57
2022/09/07 03:34:02;;;;;;;6.32;2.92;;;;;;;;;;5068711;28;20067;-57
2022/09/07 03:36:31;;;;;;;7.30;2.83;;;;;;;;;;5059370;28;20068;-56
2022/09/07 03:38:58;;;;;;;;;;;;;;;;;;5057292;28;20020;-57
2022/09/07 03:41:24;;;;;;;7.30;2.65;;;;;;;;;;5068489;28;20415;-56
2022/09/07 03:43:50;;;;;;;9.35;3.00;;;;;;;;;;5068372;28;20418;-56
2022/09/07 03:46:18;;;;;;;5.13;2.97;;;;;;;;;;5068160;28;20024;-56
2022/09/07 03:48:44;;;;;;;5.95;2.85;;;;;;;;;;5068757;28;20033;-56
2022/09/07 03:51:10;;;;;;;5.72;2.92;;;;;;;;;;5068823;28;20478;-58
2022/09/07 03:53:38;;;;;;;6.70;3.17;;;;;;;;;;5068203;28;20039;-56
2022/09/07 03:56:08;;;;;;;9.02;2.78;;;;;;;;;;5066755;28;20712;-56
2022/09/07 03:58:34;;;;;;;9.82;3.40;;;;;;;;;;5068432;28;20024;-56
2022/09/07 04:01:08;;;;;;;5.63;3.22;;;;;;;;;;5060605;28;20122;-56
2022/09/07 04:03:34;;;;;;;5.57;2.85;;;;;;;;;;5061265;28;20111;-56
2022/09/07 04:06:01;;;;;;;9.98;3.30;;;;;;;;;;5067499;28;20609;-56
2022/09/07 04:08:28;;;;;;;6.50;3.35;;;;;;;;;;5069568;28;20103;-56
2022/09/07 04:10:59;;;;;;;8.73;3.17;;;;;;;;;;5069133;28;20032;-56
2022/09/07 04:13:25;;;;;;;7.20;3.13;;;;;;;;;;5060939;28;20036;-56
2022/09/07 04:15:51;;;;;;;7.60;3.20;;;;;;;;;;5067084;28;20031;-57
2022/09/07 04:18:17;;;;;;;10.13;2.95;;;;;;;;;;5061666;28;20020;-57
2022/09/07 04:20:43;;;;;;;7.72;3.15;;;;;;;;;;5060146;28;20095;-57
2022/09/07 04:23:08;;;;;;;11.18;3.22;;;;;;;;;;5067895;28;20028;-56
2022/09/07 04:25:34;;;;;;;6.93;3.10;;;;;;;;;;5060877;28;20052;-57
2022/09/07 04:28:00;;;;;;;8.45;2.90;;;;;;;;;;5060057;28;20044;-57
2022/09/07 04:30:25;;;;;;;5.25;2.97;;;;;;;;;;5068990;28;20082;-56
2022/09/07 04:32:51;;;;;;;11.60;4.70;;;;;;;;;;5067847;28;20029;-57
2022/09/07 04:35:16;;;;;;;7.22;3.30;;;;;;;;;;5067352;28;20024;-56
2022/09/07 04:37:42;;;;;;;12.73;3.90;;;;;;;;;;5068539;28;20023;-57
2022/09/07 04:40:08;;;;;;;5.68;2.83;;;;;;;;;;5068387;28;20490;-57
2022/09/07 04:42:34;;;;;;;9.48;2.88;;;;;;;;;;5067542;28;20043;-57
2022/09/07 04:44:59;;;;;;;10.65;2.72;;;;;;;;;;5066505;28;20096;-57
2022/09/07 04:47:25;;;;;;;7.97;3.30;;;;;;;;;;5084162;28;20028;-57
2022/09/07 04:49:51;;;;;;;8.25;3.03;;;;;;;;;;5068480;28;20016;-57
2022/09/07 04:52:17;;;;;;;7.05;3.10;;;;;;;;;;5067862;28;20017;-57
2022/09/07 04:54:43;;;;;;;13.50;3.60;;;;;;;;;;5067853;28;20502;-57
2022/09/07 04:57:10;;;;;;;11.95;3.15;;;;;;;;;;5067511;28;20029;-57
2022/09/07 04:59:35;;;;;;;7.38;3.25;;;;;;;;;;5058577;28;20038;-57
2022/09/07 05:02:01;;;;;;;6.38;3.40;;;;;;;;;;5067554;28;20481;-57
2022/09/07 05:04:26;;;;;;;6.93;3.20;;;;;;;;;;5068140;28;20507;-57
2022/09/07 05:06:53;;;;;;;6.45;3.10;;;;;;;;;;5067598;28;20044;-57
2022/09/07 05:09:18;;;;;;;10.73;3.42;;;;;;;;;;5068743;28;20025;-57
2022/09/07 05:11:44;;;;;;;7.05;3.30;;;;;;;;;;5067671;28;20020;-57
2022/09/07 05:14:10;;;;;;;7.88;3.33;;;;;;;;;;5068235;28;20071;-57
2022/09/07 05:16:35;;;;;;;7.80;3.17;;;;;;;;;;5063304;28;20059;-57
2022/09/07 05:19:03;;;;;;;10.00;3.47;;;;;;;;;;5063754;28;20028;-57
2022/09/07 05:21:33;;;;;;;9.82;3.38;;;;;;;;;;5071154;28;20059;-57
2022/09/07 05:23:59;;;;;;;8.77;3.10;;;;;;;;;;5071752;28;20074;-57
2022/09/07 05:26:27;;;;;;;11.55;3.08;;;;;;;;;;5069811;28;20438;-58
2022/09/07 05:28:54;;;;;;;7.38;3.28;;;;;;;;;;5070867;28;20520;-58
2022/09/07 05:31:21;;;;;;;6.30;3.22;;;;;;;;;;5068465;28;20032;-58
2022/09/07 05:33:51;;;;;;;9.13;3.35;;;;;;;;;;5071157;28;20058;-58
2022/09/07 05:36:17;;;;;;;14.10;3.00;;;;;;;;;;5069954;28;20482;-58
2022/09/07 05:38:42;;;;;;;11.15;3.40;;;;;;;;;;5070001;28;20024;-58
2022/09/07 05:41:16;;;;;;;7.43;3.28;;;;;;;;;;5070973;28;20390;-58
2022/09/07 05:43:41;;;;;;;11.27;4.10;;;;;;;;;;5070154;28;20024;-58
2022/09/07 05:46:08;;;;;;;8.07;3.40;;;;;;;;;;5069782;28;20020;-58
2022/09/07 05:48:34;;;;;;;10.73;3.30;;;;;;;;;;5071045;28;20024;-58
2022/09/07 05:51:00;;;;;;;7.90;3.80;;;;;;;;;;5071011;28;20081;-58
2022/09/07 05:53:26;;;;;;;8.10;3.33;;;;;;;;;;5070336;28;20025;-59
2022/09/07 05:55:51;;;;;;;7.97;3.55;;;;;;;;;;5069412;28;20028;-59
2022/09/07 05:58:17;;;;;;;8.15;3.70;;;;;;;;;;5070564;28;20478;-59
2022/09/07 06:00:44;;;;;;;10.23;3.40;;;;;;;;;;5070981;28;20036;-58
2022/09/07 06:03:10;;;;;;;8.18;3.25;;;;;;;;;;5069936;28;20151;-59
2022/09/07 06:05:35;;;;;;;10.75;3.50;;;;;;;;;;5062672;28;20120;-59
2022/09/07 06:08:01;;;;;;;8.45;3.20;;;;;;;;;;5063057;28;20462;-59
2022/09/07 06:10:26;;;;;;;9.13;3.55;;;;;;;;;;5069400;28;20020;-59
2022/09/07 06:12:52;;;;;;;10.55;3.47;;;;;;;;;;5069598;28;20508;-59
2022/09/07 06:15:18;;;;;;;9.82;3.35;;;;;;;;;;5070381;28;20028;-59
2022/09/07 06:17:43;;;;;;;5.80;3.15;;;;;;;;;;5069655;28;20035;-59
2022/09/07 06:20:09;;;;;;;12.38;3.83;;;;;;;;;;5070179;28;20016;-59
2022/09/07 06:22:37;;;;;;;8.13;3.53;;;;;;;;;;5069620;28;20071;-59
2022/09/07 06:25:04;;;;;;;6.80;2.95;;;;;;;;;;5069674;28;20115;-59
2022/09/07 06:27:29;;;;;;;10.70;3.13;;;;;;;;;;5069413;28;20095;-59
2022/09/07 06:29:55;;;;;;;10.23;3.03;;;;;;;;;;5070039;28;20494;-59
2022/09/07 06:32:20;;;;;;;7.55;2.72;;;;;;;;;;5069907;28;20031;-58
2022/09/07 06:34:46;;;;;;;8.05;3.25;;;;;;;;;;5070025;28;20107;-58
2022/09/07 06:37:12;;;;;;;12.93;3.40;;;;;;;;;;5052416;28;20048;-58
2022/09/07 06:39:37;;;;;;;8.40;2.88;;;;;;;;;;5069914;28;20048;-58
2022/09/07 06:42:03;;;;;;;5.50;2.88;;;;;;;;;;5069597;28;20024;-58
2022/09/07 06:44:29;;;;;;;6.60;3.17;;;;;;;;;;5062285;28;20032;-58
2022/09/07 06:46:55;;;;;;;6.10;2.70;;;;;;;;;;5066058;28;20020;-58
2022/09/07 06:49:22;;;;;;;10.85;3.25;;;;;;;;;;5085398;28;20102;-58
2022/09/07 06:51:48;;;;;;;9.13;3.42;;;;;;;;;;5069471;28;20108;-58
2022/09/07 06:54:13;;;;;;;9.23;3.22;;;;;;;;;;5066015;28;20456;-59
2022/09/07 06:56:39;;;;;;;15.73;4.90;;;;;;;;;;5059978;28;20479;-59
2022/09/07 06:59:04;;;;;;;10.57;5.05;;;;;;;;;;5068699;28;20131;-59
2022/09/07 07:01:32;;;;;;;10.85;4.38;;;;;;;;;;5069127;28;20040;-59
2022/09/07 07:03:58;;;;;;;8.48;3.88;;;;;;;;;;5069712;28;20032;-59
2022/09/07 07:06:32;;;;;;;8.55;3.90;;;;;;;;;;5063517;28;20033;-60
2022/09/07 07:08:57;;;;;;;9.07;3.70;;;;;;;;;;5069445;28;20028;-57
2022/09/07 07:11:23;;;;;;;9.93;3.00;;;;;;;;;;5061773;28;20046;-58
2022/09/07 07:13:48;;;;;;;8.60;3.10;;;;;;;;;;5069213;28;20016;-57
2022/09/07 07:16:15;;;;;;;9.00;3.90;;;;;;;;;;5069569;28;20059;-58
2022/09/07 07:18:42;;;;;;;10.73;4.20;;;;;;;;;;5068428;28;20032;-58
2022/09/07 07:21:13;;;;;;;13.50;4.65;;;;;;;;;;5070018;28;20031;-58
2022/09/07 07:23:39;;;;;;;9.02;4.18;;;;;;;;;;5068781;28;20545;-58
2022/09/07 07:26:16;;;;;;;10.18;3.53;;;;;;;;;;5069284;28;20028;-58
2022/09/07 07:28:46;;;;;;;12.32;4.47;;;;;;;;;;5068841;28;20367;-59
2022/09/07 07:31:14;;;;;;;11.27;3.72;;;;;;;;;;5069277;28;20482;-59
2022/09/07 07:33:40;;;;;;;11.32;4.00;;;;;;;;;;5068695;28;20024;-59
2022/09/07 07:36:13;;;;;;;12.57;3.90;;;;;;;;;;5067852;28;20056;-58
2022/09/07 07:38:40;;;;;;;8.20;3.35;;;;;;;;;;5065905;28;20110;-59
2022/09/07 07:41:06;;;;;;;11.73;3.60;;;;;;;;;;5066321;28;20035;-58
2022/09/07 07:43:32;;;;;;;12.38;4.85;;;;;;;;;;5067941;28;20029;-58
2022/09/07 07:45:58;;;;;;;7.97;3.50;;;;;;;;;;5059204;28;20547;-58
2022/09/07 07:48:27;;;;;;;14.02;6.00;;;;;;;;;;5058764;28;20115;-58
2022/09/07 07:51:00;;;;;;;9.40;3.58;;;;;;;;;;5069067;28;20034;-58
2022/09/07 07:53:27;;;;;;;10.45;3.83;;;;;;;;;;5062492;28;20038;-58
2022/09/07 07:55:53;;;;;;;7.63;3.40;;;;;;;;;;5067417;28;20039;-58
2022/09/07 07:58:19;;;;;;;14.35;5.03;;;;;;;;;;5061435;28;20024;-57
2022/09/07 08:00:45;;;;;;;11.23;3.53;;;;;;;;;;5068704;28;20028;-58
2022/09/07 08:03:11;;;;;;;12.30;3.97;;;;;;;;;;5069062;28;20028;-58
2022/09/07 08:05:36;;;;;;;9.68;3.60;;;;;;;;;;5068663;28;20028;-60
2022/09/07 08:08:02;;;;;;;10.18;3.80;;;;;;;;;;5068877;28;20028;-58
2022/09/07 08:10:29;;;;;;;10.55;3.28;;;;;;;;;;5067585;28;20076;-58
2022/09/07 08:12:55;;;;;;;11.82;3.83;;;;;;;;;;5067583;28;20029;-58
2022/09/07 08:15:21;;;;;;;6.60;3.25;;;;;;;;;;5067676;28;20453;-58
2022/09/07 08:17:47;;;;;;;9.00;3.70;;;;;;;;;;5067701;28;20048;-58
2022/09/07 08:20:13;;;;;;;7.75;4.35;;;;;;;;;;5068550;28;20024;-58
2022/09/07 08:22:39;;;;;;;13.32;4.78;;;;;;;;;;5067727;28;20028;-58
2022/09/07 08:25:05;;;;;;;11.15;3.97;;;;;;;;;;5068423;28;20032;-58
2022/09/07 08:27:31;;;;;;;10.27;3.67;;;;;;;;;;5065330;28;20140;-58
2022/09/07 08:29:57;;;;;;;11.82;3.80;;;;;;;;;;5067620;28;20042;-58
2022/09/07 08:32:22;;;;;;;11.55;3.58;;;;;;;;;;5068073;28;20021;-59
2022/09/07 08:34:48;;;;;;;7.68;3.53;;;;;;;;;;5066074;28;20070;-58
2022/09/07 08:37:13;;;;;;;10.15;4.07;;;;;;;;;;5056844;28;20029;-58
2022/09/07 08:39:40;;;;;;;10.63;4.18;;;;;;;;;;5068305;28;20436;-58
2022/09/07 08:42:51;;;;;;;10.70;3.88;;;;;;;;;;5064054;28;20482;-58
2022/09/07 08:45:28;;;;;;;10.73;3.55;;;;;;;;;;5063071;28;20430;-59
2022/09/07 08:47:53;;;;;;;9.85;3.75;;;;;;;;;;5068296;28;21676;-58
2022/09/07 08:50:46;;;;;;;11.73;3.72;;;;;;;;;;5070976;28;20060;-59
2022/09/07 08:53:12;;;;;;;13.48;4.20;;;;;;;;;;5070825;28;20091;-58
2022/09/07 08:56:03;;;;;;;8.10;3.95;;;;;;;;;;5073979;28;20477;-58
2022/09/07 08:58:45;;;;;;;10.30;3.70;;;;;;;;;;5064287;28;20394;-58
2022/09/07 09:01:11;;;;;;;11.73;4.20;;;;;;;;;;5065407;28;20032;-58
2022/09/07 09:03:37;;;;;;;7.13;3.38;;;;;;;;;;5071525;28;20032;-58
2022/09/07 09:06:14;;;;;;;8.52;4.28;;;;;;;;;;5072025;28;20032;-58
2022/09/07 09:08:50;;;;;;;10.48;4.10;;;;;;;;;;5071104;28;20043;-58
2022/09/07 09:11:35;;;;;;;10.70;4.05;;;;;;;;;;5071967;28;20017;-58
2022/09/07 09:14:05;;;;;;;10.13;3.92;;;;;;;;;;5071329;28;20040;-58
2022/09/07 09:16:48;;;;;;;11.00;4.40;;;;;;;;;;5070821;28;20032;-58
2022/09/07 09:19:58;;;;;;;11.35;4.28;;;;;;;;;;5059747;28;20024;-58
2022/09/07 09:22:27;;;;;;;13.15;4.03;;;;;;;;;;5070160;28;20024;-58
2022/09/07 09:25:29;;;;;;;9.43;4.20;;;;;;;;;;5068840;28;20020;-58
2022/09/07 09:27:54;;;;;;;9.48;3.95;;;;;;;;;;5058769;28;20056;-58
2022/09/07 09:30:23;;;;;;;12.02;3.63;;;;;;;;;;5069360;28;20446;-58
2022/09/07 09:32:51;;;;;;;;;;;;;;;;;;5070991;28;20043;-57
2022/09/07 09:35:26;;;;;;;7.57;4.28;;;;;;;;;;5071196;28;19908;-57
2022/09/07 09:37:51;;;;;;;10.55;3.97;;;;;;;;;;5071220;28;20036;-58
2022/09/07 09:40:25;;;;;;;10.63;3.80;;;;;;;;;;5067117;28;20040;-58
2022/09/07 09:43:18;;;;;;;10.45;4.18;;;;;;;;;;5069827;28;20486;-59
2022/09/07 09:45:48;;;;;;;6.10;3.53;;;;;;;;;;5070551;28;20046;-58
2022/09/07 09:48:50;;;;;;;6.32;3.30;;;;;;;;;;5070450;28;20037;-58
2022/09/07 09:51:16;;;;;;;8.90;3.25;;;;;;;;;;5070856;28;20386;-59
2022/09/07 09:53:53;;;;;;;9.57;3.75;;;;;;;;;;5069185;28;20081;-59
2022/09/07 09:56:21;;;;;;;9.55;3.80;;;;;;;;;;5055295;28;20029;-59
2022/09/07 09:58:47;;;;;;;9.30;3.30;;;;;;;;;;5063511;28;20023;-59
2022/09/07 10:01:24;;;;;;;6.45;3.63;;;;;;;;;;5071128;28;20049;-58
2022/09/07 10:03:51;;;;;;;8.68;4.00;;;;;;;;;;5070339;28;20025;-59
2022/09/07 10:06:18;;;;;;;12.13;3.20;;;;;;;;;;5070781;28;20036;-58
2022/09/07 10:08:56;;;;;;;9.52;3.25;;;;;;;;;;5070689;28;20062;-58
2022/09/07 10:11:41;;;;;;;8.27;3.28;;;;;;;;;;5068889;28;20085;-58
2022/09/07 10:14:22;;;;;;;7.97;3.28;;;;;;;;;;5062900;28;20452;-58
2022/09/07 10:16:47;;;;;;;7.75;3.45;;;;;;;;;;5061674;28;20033;-58
2022/09/07 10:19:31;;;;;;;10.73;3.42;;;;;;;;;;5057079;28;20025;-58
2022/09/07 10:21:59;;;;;;;9.48;3.70;;;;;;;;;;5069474;28;20021;-58
2022/09/07 10:24:27;;;;;;;9.13;3.13;;;;;;;;;;5070186;28;20028;-58
2022/09/07 10:26:53;;;;;;;7.35;2.90;;;;;;;;;;5069994;28;20036;-58
2022/09/07 10:29:29;;;;;;;6.18;3.25;;;;;;;;;;5069052;28;20443;-58
2022/09/07 10:31:57;;;;;;;11.63;3.40;;;;;;;;;;5069897;28;20394;-58
2022/09/07 10:34:34;;;;;;;5.93;3.17;;;;;;;;;;5070207;28;20029;-58
2022/09/07 10:37:04;;;;;;;7.43;2.92;;;;;;;;;;5063925;28;20367;-58
2022/09/07 10:39:41;;;;;;;7.03;3.10;;;;;;;;;;5066225;28;20024;-58
2022/09/07 10:42:12;;;;;;;7.15;3.13;;;;;;;;;;5060979;28;20097;-57
2022/09/07 10:44:59;;;;;;;9.80;3.17;;;;;;;;;;5069565;28;20021;-58
2022/09/07 10:47:30;;;;;;;6.97;3.22;;;;;;;;;;5064871;28;20023;-58
2022/09/07 10:50:02;;;;;;;9.25;3.33;;;;;;;;;;5069846;28;20028;-58
2022/09/07 10:52:54;;;;;;;5.50;2.92;;;;;;;;;;5069362;28;20107;-58
2022/09/07 10:55:30;;;;;;;6.82;3.72;;;;;;;;;;5064555;28;20021;-59
2022/09/07 10:58:09;;;;;;;8.23;3.03;;;;;;;;;;5066112;28;20118;-59
2022/09/07 11:01:02;;;;;;;5.20;2.65;;;;;;;;;;5066764;28;20109;-58
2022/09/07 11:03:52;;;;;;;5.05;2.97;;;;;;;;;;5063793;28;20055;-58
2022/09/07 11:06:26;;;;;;;10.50;2.90;;;;;;;;;;5063832;28;20387;-58
2022/09/07 11:09:16;;;;;;;4.97;2.50;;;;;;;;;;5053554;28;20051;-59
2022/09/07 11:12:15;;;;;;;7.18;2.70;;;;;;;;;;5067983;28;20034;-58
2022/09/07 11:15:01;;;;;;;9.93;2.78;;;;;;;;;;5067389;28;20554;-58
2022/09/07 11:17:29;;;;;;;6.93;2.70;;;;;;;;;;5069552;28;20166;-58
2022/09/07 11:19:59;;;;;;;3.95;2.40;;;;;;;;;;5069282;28;20090;-58
2022/09/07 11:22:30;;;;;;;5.32;2.17;;;;;;;;;;5067584;28;20035;-58
2022/09/07 11:25:03;;;;;;;5.78;1.98;;;;;;;;;;5067404;28;20024;-58
2022/09/07 11:27:39;;;;;;;6.95;2.20;;;;;;;;;;5065126;28;20051;-58
2022/09/07 11:30:12;;;;;;;4.88;2.00;;;;;;;;;;5064605;28;20517;-58
2022/09/07 11:33:01;;;;;;;3.83;2.05;;;;;;;;;;5065663;28;20029;-58
2022/09/07 11:35:39;;;;;;;3.75;2.00;;;;;;;;;;5068753;28;20046;-58
2022/09/07 11:38:27;;;;;;;5.68;1.90;;;;;;;;;;5068206;28;20170;-58
2022/09/07 11:41:12;;;;;;;4.83;1.77;;;;;;;;;;5069093;28;20477;-58
2022/09/07 11:43:43;;;;;;;4.30;2.20;;;;;;;;;;5066099;28;20287;-58
2022/09/07 11:46:31;;;;;;;6.85;2.30;;;;;;;;;;5057857;28;20025;-58
2022/09/07 11:48:57;;;;;;;8.27;2.50;;;;;;;;;;5068993;28;20082;-59
2022/09/07 11:51:41;;;;;;;7.65;1.92;;;;;;;;;;5068241;28;20455;-58
2022/09/07 11:54:18;;;;;;;5.28;2.28;;;;;;;;;;5064982;28;20454;-58
2022/09/07 11:56:53;;;;;;;2.73;1.80;;;;;;;;;;5056320;28;20397;-59
2022/09/07 11:59:25;;;;;;;6.20;2.10;;;;;;;;;;5064092;28;20024;-59
2022/09/07 12:02:15;;;;;;;5.78;2.10;;;;;;;;;;5067810;28;20029;-59
2022/09/07 12:04:53;;;;;;;3.47;1.63;;;;;;;;;;5068659;28;20028;-59
2022/09/07 12:07:27;;;;;;;3.53;1.48;;;;;;;;;;5068818;28;20035;-59
2022/09/07 12:09:52;;;;;;;5.15;1.80;;;;;;;;;;5068250;28;20064;-59
2022/09/07 12:12:18;;;;;;;3.30;1.55;;;;;;;;;;5068129;28;20052;-59
2022/09/07 12:15:12;;;;;;;4.53;1.80;;;;;;;;;;5066895;28;20051;-59
2022/09/07 12:18:05;;;;;;;5.05;1.80;;;;;;;;;;5066492;28;20047;-59
2022/09/07 12:20:38;;;;;;;2.20;1.38;;;;;;;;;;5065438;28;20024;-59
2022/09/07 12:23:16;;;;;;;3.20;1.75;;;;;;;;;;5068339;28;20024;-59
2022/09/07 12:25:46;;;;;;;4.82;1.73;;;;;;;;;;5069977;28;20537;-59
2022/09/07 12:28:36;;;;;;;6.18;1.90;;;;;;;;;;5067807;28;20519;-59
2022/09/07 12:31:09;;;;;;;3.78;1.58;;;;;;;;;;5072229;28;20017;-59
2022/09/07 12:33:39;;;;;;;4.60;1.63;;;;;;;;;;5068491;28;20021;-59
2022/09/07 12:36:26;;;;;;;7.57;2.30;;;;;;;;;;5072418;28;20051;-59
2022/09/07 12:39:18;;;;;;;5.13;2.05;;;;;;;;;;5072442;28;20020;-59
2022/09/07 12:41:47;;;;;;;2.60;1.75;;;;;;;;;;5069357;28;20093;-59
2022/09/07 12:44:18;;;;;;;5.60;1.90;;;;;;;;;;5066257;28;20025;-59
2022/09/07 12:46:47;;;;;;;2.72;1.58;;;;;;;;;;5060261;28;20032;-59
2022/09/07 12:49:18;;;;;;;;;;;;;;;;;;5072160;28;20090;-59
2022/09/07 12:51:54;;;;;;;3.83;1.70;;;;;;;;;;5071317;28;19908;-59
2022/09/07 12:54:59;;;;;;;4.03;1.80;;;;;;;;;;5070778;28;20021;-59
2022/09/07 12:57:38;;;;;;;3.95;1.75;;;;;;;;;;5066742;28;20032;-59
2022/09/07 13:00:34;;;;;;;3.53;1.60;;;;;;;;;;5072429;28;20032;-58
2022/09/07 13:03:21;;;;;;;5.88;2.00;;;;;;;;;;5070633;28;20029;-58
2022/09/07 13:05:52;;;;;;;7.38;1.80;;;;;;;;;;5071530;28;20077;-59
2022/09/07 13:08:47;;;;;;;4.43;1.67;;;;;;;;;;5071859;28;20046;-59
2022/09/07 13:11:18;;;;;;;5.65;1.90;;;;;;;;;;5070549;28;20059;-59
2022/09/07 13:13:58;;;;;;;2.90;1.50;;;;;;;;;;5068690;28;20553;-58
2022/09/07 13:16:25;;;;;;;4.97;1.83;;;;;;;;;;5070377;28;20035;-59
2022/09/07 13:18:51;;;;;;;3.40;1.73;;;;;;;;;;5069210;28;20051;-59
2022/09/07 13:21:17;;;;;;;4.18;1.80;;;;;;;;;;5060600;28;20033;-58
2022/09/07 13:24:20;;;;;;;2.47;1.63;;;;;;;;;;5071077;28;20494;-59
2022/09/07 13:27:01;;;;;;;7.35;2.47;;;;;;;;;;5069124;28;20085;-58
2022/09/07 13:29:47;;;;;;;4.10;1.73;;;;;;;;;;5071412;28;20111;-59
2022/09/07 13:32:32;;;;;;;5.22;2.03;;;;;;;;;;5069212;28;20062;-59
2022/09/07 13:35:01;;;;;;;3.30;1.83;;;;;;;;;;5063413;28;20021;-59
2022/09/07 13:37:27;;;;;;;6.40;2.33;;;;;;;;;;5067065;28;20041;-59
2022/09/07 13:39:57;;;;;;;3.13;1.90;;;;;;;;;;5070701;28;20032;-59
2022/09/07 13:42:25;;;;;;;3.85;2.10;;;;;;;;;;5065466;28;20020;-59
2022/09/07 13:44:57;;;;;;;;;;;;;;;;;;5071167;28;20485;-59
2022/09/07 13:47:39;;;;;;;4.28;1.90;;;;;;;;;;5071238;28;19908;-59
2022/09/07 13:50:07;;;;;;;4.43;1.88;;;;;;;;;;5070170;28;20044;-59
2022/09/07 13:52:50;;;;;;;3.05;1.67;;;;;;;;;;5070590;28;20025;-59
2022/09/07 13:55:30;;;;;;;4.18;2.10;;;;;;;;;;5070932;28;20104;-59
2022/09/07 13:58:24;;;;;;;3.60;1.67;;;;;;;;;;5068546;28;20016;-59
2022/09/07 14:01:12;;;;;;;4.55;1.70;;;;;;;;;;5071210;28;20025;-59
2022/09/07 14:03:44;;;;;;;6.28;2.00;;;;;;;;;;5069134;28;20025;-59
2022/09/07 14:06:24;;;;;;;6.72;2.20;;;;;;;;;;5070220;28;20103;-59
2022/09/07 14:08:54;;;;;;;6.75;1.60;;;;;;;;;;5070811;28;20464;-59
2022/09/07 14:11:22;;;;;;;3.50;1.85;;;;;;;;;;5069763;28;20618;-59
2022/09/07 14:14:15;;;;;;;6.65;1.98;;;;;;;;;;5069483;28;20025;-59
2022/09/07 14:16:44;;;;;;;7.05;3.17;;;;;;;;;;5070460;28;20021;-59
2022/09/07 14:19:11;;;;;;;4.70;2.15;;;;;;;;;;5069479;28;20020;-60
2022/09/07 14:21:37;;;;;;;5.97;2.05;;;;;;;;;;5069108;28;20575;-59
2022/09/07 14:24:17;;;;;;;4.22;2.10;;;;;;;;;;5064081;28;20364;-59
2022/09/07 14:26:47;;;;;;;4.47;1.88;;;;;;;;;;5055565;28;20032;-59
2022/09/07 14:29:22;;;;;;;3.95;2.00;;;;;;;;;;5067188;28;20028;-59
2022/09/07 14:31:47;;;;;;;6.82;2.45;;;;;;;;;;5069613;28;20024;-59
2022/09/07 14:34:18;;;;;;;3.40;2.10;;;;;;;;;;5070059;28;20432;-59
2022/09/07 14:36:45;;;;;;;7.32;2.13;;;;;;;;;;5069669;28;20474;-59
2022/09/07 14:39:15;;;;;;;4.18;2.03;;;;;;;;;;5069008;28;20021;-59
2022/09/07 14:41:41;;;;;;;5.63;2.53;;;;;;;;;;5069226;28;20490;-59
2022/09/07 14:44:26;;;;;;;4.93;2.08;;;;;;;;;;5062492;28;20062;-59
2022/09/07 14:46:51;;;;;;;4.28;1.95;;;;;;;;;;5068395;28;20437;-59
2022/09/07 14:49:19;;;;;;;8.30;2.10;;;;;;;;;;5069794;28;20024;-59
2022/09/07 14:51:45;;;;;;;5.22;2.05;;;;;;;;;;5069198;28;20036;-59
2022/09/07 14:54:30;;;;;;;4.07;2.35;;;;;;;;;;5069615;28;20054;-59
2022/09/07 14:57:03;;;;;;;7.82;2.40;;;;;;;;;;5069761;28;20048;-59
2022/09/07 14:59:42;;;;;;;6.25;2.20;;;;;;;;;;5061893;28;20024;-59
2022/09/07 15:02:16;;;;;;;4.38;2.15;;;;;;;;;;5068912;28;20039;-59
2022/09/07 15:04:42;;;;;;;6.05;2.20;;;;;;;;;;5068294;28;20024;-59
2022/09/07 15:07:38;;;;;;;6.03;2.60;;;;;;;;;;5069263;28;20033;-59
2022/09/07 15:10:21;;;;;;;4.70;2.50;;;;;;;;;;5068834;28;20036;-59
2022/09/07 15:12:58;;;;;;;5.82;2.60;;;;;;;;;;5067874;28;20031;-59
2022/09/07 15:15:28;;;;;;;3.72;2.10;;;;;;;;;;5056519;28;20029;-59